Time;durP1;ratioP1;P1;durP2;ratioP2;P2;SDS_P1;SDS_P2;PMS_P1;PMS_P2;Temp;Humidity;BMP_temperature;BMP_pressure;BME280_temperature;BME280_humidity;BME280_pressure;Samples;Min_cycle;Max_cycle;Signal;HPM_P1;HPM_P2
2022/06/17 00:00:00;;;;;;;0.4;0.4;;;;;;;20.4;100.0;102080;;;;
2022/06/17 00:01:01;;;;;;;0.4;0.4;;;;;;;20.4;100.0;102080;;;;
2022/06/17 00:02:00;;;;;;;0.4;0.4;;;;;;;20.4;100.0;102080;;;;
2022/06/17 00:03:00;;;;;;;0.4;0.4;;;;;;;20.4;100.0;102080;;;;
2022/06/17 00:04:00;;;;;;;0.4;0.4;;;;;;;20.2;100.0;102080;;;;
2022/06/17 00:05:00;;;;;;;0.4;0.4;;;;;;;20.2;100.0;102080;;;;
2022/06/17 00:06:01;;;;;;;0.4;0.4;;;;;;;20.3;100.0;102070;;;;
2022/06/17 00:07:03;;;;;;;0.4;0.4;;;;;;;20.3;100.0;102070;;;;
2022/06/17 00:08:00;;;;;;;0.4;0.4;;;;;;;20.3;100.0;102080;;;;
2022/06/17 00:09:00;;;;;;;0.4;0.4;;;;;;;20.3;100.0;102080;;;;
2022/06/17 00:10:00;;;;;;;0.6;0.6;;;;;;;20.4;100.0;102080;;;;
2022/06/17 00:11:00;;;;;;;0.6;0.6;;;;;;;20.4;100.0;102080;;;;
2022/06/17 00:12:00;;;;;;;0.6;0.6;;;;;;;20.2;100.0;102080;;;;
2022/06/17 00:13:00;;;;;;;0.6;0.6;;;;;;;20.2;100.0;102080;;;;
2022/06/17 00:14:06;;;;;;;0.6;0.6;;;;;;;20.2;100.0;102070;;;;
2022/06/17 00:16:00;;;;;;;0.6;0.6;;;;;;;20.3;100.0;102070;;;;
2022/06/17 00:17:07;;;;;;;0.6;0.6;;;;;;;20.3;100.0;102070;;;;
2022/06/17 00:18:00;;;;;;;0.6;0.6;;;;;;;20.4;100.0;102070;;;;
2022/06/17 00:19:00;;;;;;;0.6;0.6;;;;;;;20.4;100.0;102070;;;;
2022/06/17 00:20:00;;;;;;;0.6;0.6;;;;;;;20.4;100.0;102080;;;;
2022/06/17 00:21:00;;;;;;;0.6;0.6;;;;;;;20.4;100.0;102080;;;;
2022/06/17 00:22:00;;;;;;;0.6;0.6;;;;;;;20.4;100.0;102080;;;;
2022/06/17 00:23:00;;;;;;;0.6;0.6;;;;;;;20.4;100.0;102080;;;;
2022/06/17 00:24:00;;;;;;;0.6;0.6;;;;;;;19.9;100.0;102080;;;;
2022/06/17 00:25:01;;;;;;;0.6;0.6;;;;;;;19.9;100.0;102080;;;;
2022/06/17 00:26:00;;;;;;;0.6;0.6;;;;;;;20.1;100.0;102080;;;;
2022/06/17 00:27:00;;;;;;;0.6;0.6;;;;;;;20.1;100.0;102080;;;;
2022/06/17 00:28:00;;;;;;;0.6;0.6;;;;;;;20.2;100.0;102090;;;;
2022/06/17 00:29:00;;;;;;;0.6;0.6;;;;;;;20.2;100.0;102090;;;;
2022/06/17 00:30:00;;;;;;;0.4;0.4;;;;;;;20.3;100.0;102090;;;;
2022/06/17 00:31:00;;;;;;;0.4;0.4;;;;;;;20.3;100.0;102090;;;;
2022/06/17 00:32:00;;;;;;;0.4;0.4;;;;;;;20.4;100.0;102090;;;;
2022/06/17 00:33:01;;;;;;;0.4;0.4;;;;;;;20.4;100.0;102090;;;;
2022/06/17 00:34:00;;;;;;;0.4;0.4;;;;;;;20.3;100.0;102090;;;;
2022/06/17 00:35:00;;;;;;;0.4;0.4;;;;;;;20.3;100.0;102090;;;;
2022/06/17 00:36:00;;;;;;;0.4;0.4;;;;;;;20.3;100.0;102080;;;;
2022/06/17 00:37:01;;;;;;;0.4;0.4;;;;;;;20.3;100.0;102080;;;;
2022/06/17 00:38:00;;;;;;;0.4;0.4;;;;;;;20.3;100.0;102080;;;;
2022/06/17 00:39:00;;;;;;;0.4;0.4;;;;;;;20.3;100.0;102080;;;;
2022/06/17 00:40:00;;;;;;;0.4;0.4;;;;;;;20.2;100.0;102080;;;;
2022/06/17 00:41:06;;;;;;;0.4;0.4;;;;;;;20.2;100.0;102080;;;;
2022/06/17 00:42:04;;;;;;;0.4;0.4;;;;;;;20.2;100.0;102080;;;;
2022/06/17 00:43:01;;;;;;;0.4;0.4;;;;;;;20.2;100.0;102080;;;;
2022/06/17 00:44:06;;;;;;;0.4;0.4;;;;;;;20.2;100.0;102080;;;;
2022/06/17 00:45:03;;;;;;;0.4;0.4;;;;;;;20.2;100.0;102080;;;;
2022/06/17 00:46:10;;;;;;;0.4;0.4;;;;;;;20.2;100.0;102080;;;;
2022/06/17 00:47:03;;;;;;;0.4;0.4;;;;;;;20.2;100.0;102080;;;;
2022/06/17 00:48:01;;;;;;;0.4;0.4;;;;;;;20.2;100.0;102080;;;;
2022/06/17 00:49:09;;;;;;;0.4;0.4;;;;;;;20.2;100.0;102080;;;;
2022/06/17 00:50:09;;;;;;;1.4;1.3;;;;;;;20.2;100.0;102080;;;;
2022/06/17 00:51:05;;;;;;;1.4;1.3;;;;;;;20.2;100.0;102080;;;;
2022/06/17 00:52:06;;;;;;;1.4;1.3;;;;;;;20.2;100.0;102080;;;;
2022/06/17 00:53:03;;;;;;;1.4;1.3;;;;;;;20.2;100.0;102080;;;;
2022/06/17 00:54:05;;;;;;;1.4;1.3;;;;;;;20.2;100.0;102080;;;;
2022/06/17 00:55:10;;;;;;;1.4;1.3;;;;;;;20.2;100.0;102080;;;;
2022/06/17 00:56:03;;;;;;;1.4;1.3;;;;;;;20.2;100.0;102080;;;;
2022/06/17 00:57:00;;;;;;;1.4;1.3;;;;;;;20.2;100.0;102080;;;;
2022/06/17 00:58:00;;;;;;;1.4;1.3;;;;;;;20.1;100.0;102090;;;;
2022/06/17 00:59:00;;;;;;;1.4;1.3;;;;;;;20.1;100.0;102090;;;;
2022/06/17 01:00:07;;;;;;;1.4;1.3;;;;;;;20.1;100.0;102090;;;;
2022/06/17 01:01:01;;;;;;;1.4;1.3;;;;;;;20.1;100.0;102090;;;;
2022/06/17 01:02:01;;;;;;;1.4;1.3;;;;;;;20.1;100.0;102090;;;;
2022/06/17 01:03:02;;;;;;;1.4;1.3;;;;;;;20.1;100.0;102090;;;;
2022/06/17 01:04:01;;;;;;;1.4;1.3;;;;;;;20.1;100.0;102090;;;;
2022/06/17 01:05:00;;;;;;;1.4;1.3;;;;;;;20.1;100.0;102090;;;;
2022/06/17 01:06:04;;;;;;;1.4;1.3;;;;;;;20.1;100.0;102090;;;;
2022/06/17 01:07:07;;;;;;;1.4;1.3;;;;;;;20.1;100.0;102090;;;;
2022/06/17 01:08:04;;;;;;;1.4;1.3;;;;;;;20.0;100.0;102080;;;;
2022/06/17 01:10:08;;;;;;;0.4;0.4;;;;;;;19.9;100.0;102080;;;;
2022/06/17 01:11:00;;;;;;;0.4;0.4;;;;;;;19.9;100.0;102080;;;;
2022/06/17 01:12:03;;;;;;;0.4;0.4;;;;;;;19.8;100.0;102080;;;;
2022/06/17 01:13:03;;;;;;;0.4;0.4;;;;;;;19.8;100.0;102080;;;;
2022/06/17 01:14:01;;;;;;;0.4;0.4;;;;;;;19.8;100.0;102080;;;;
2022/06/17 01:15:00;;;;;;;0.4;0.4;;;;;;;19.8;100.0;102080;;;;
2022/06/17 01:16:00;;;;;;;0.4;0.4;;;;;;;19.8;100.0;102080;;;;
2022/06/17 01:17:00;;;;;;;0.4;0.4;;;;;;;19.8;100.0;102080;;;;
2022/06/17 01:18:00;;;;;;;0.4;0.4;;;;;;;19.9;100.0;102090;;;;
2022/06/17 01:19:02;;;;;;;0.4;0.4;;;;;;;19.9;100.0;102090;;;;
2022/06/17 01:20:01;;;;;;;0.4;0.4;;;;;;;19.9;100.0;102090;;;;
2022/06/17 01:21:02;;;;;;;0.4;0.4;;;;;;;19.9;100.0;102090;;;;
2022/06/17 01:22:05;;;;;;;0.4;0.4;;;;;;;19.8;100.0;102080;;;;
2022/06/17 01:23:05;;;;;;;0.4;0.4;;;;;;;19.8;100.0;102080;;;;
2022/06/17 01:24:00;;;;;;;0.4;0.4;;;;;;;19.8;100.0;102080;;;;
2022/06/17 01:25:03;;;;;;;0.4;0.4;;;;;;;19.8;100.0;102080;;;;
2022/06/17 01:26:00;;;;;;;0.4;0.4;;;;;;;19.7;100.0;102080;;;;
2022/06/17 01:27:00;;;;;;;0.4;0.4;;;;;;;19.7;100.0;102080;;;;
2022/06/17 01:28:01;;;;;;;0.4;0.4;;;;;;;19.8;100.0;102090;;;;
2022/06/17 01:29:00;;;;;;;0.4;0.4;;;;;;;19.8;100.0;102090;;;;
2022/06/17 01:30:00;;;;;;;0.4;0.4;;;;;;;19.6;100.0;102080;;;;
2022/06/17 01:31:04;;;;;;;0.4;0.4;;;;;;;19.6;100.0;102080;;;;
2022/06/17 01:32:00;;;;;;;0.4;0.4;;;;;;;19.6;100.0;102080;;;;
2022/06/17 01:33:02;;;;;;;0.4;0.4;;;;;;;19.6;100.0;102080;;;;
2022/06/17 01:34:00;;;;;;;0.4;0.4;;;;;;;19.6;100.0;102080;;;;
2022/06/17 01:35:00;;;;;;;0.4;0.4;;;;;;;19.6;100.0;102080;;;;
2022/06/17 01:36:03;;;;;;;0.4;0.4;;;;;;;19.6;100.0;102080;;;;
2022/06/17 01:37:05;;;;;;;0.4;0.4;;;;;;;19.6;100.0;102080;;;;
2022/06/17 01:38:00;;;;;;;0.4;0.4;;;;;;;19.5;100.0;102080;;;;
2022/06/17 01:39:00;;;;;;;0.4;0.4;;;;;;;19.5;100.0;102080;;;;
2022/06/17 01:40:01;;;;;;;0.4;0.4;;;;;;;19.5;100.0;102080;;;;
2022/06/17 01:41:01;;;;;;;0.4;0.4;;;;;;;19.5;100.0;102080;;;;
2022/06/17 01:42:00;;;;;;;0.4;0.4;;;;;;;19.4;100.0;102070;;;;
2022/06/17 01:43:01;;;;;;;0.4;0.4;;;;;;;19.4;100.0;102070;;;;
2022/06/17 01:44:06;;;;;;;0.4;0.4;;;;;;;19.5;100.0;102080;;;;
2022/06/17 01:45:00;;;;;;;0.4;0.4;;;;;;;19.5;100.0;102080;;;;
2022/06/17 01:46:04;;;;;;;0.4;0.4;;;;;;;19.4;100.0;102070;;;;
2022/06/17 01:47:01;;;;;;;0.4;0.4;;;;;;;19.4;100.0;102070;;;;
2022/06/17 01:48:00;;;;;;;0.4;0.4;;;;;;;19.4;100.0;102070;;;;
2022/06/17 01:49:10;;;;;;;0.5;0.5;;;;;;;19.4;100.0;102070;;;;
2022/06/17 01:50:03;;;;;;;0.5;0.5;;;;;;;19.4;100.0;102070;;;;
2022/06/17 01:51:02;;;;;;;0.5;0.5;;;;;;;19.4;100.0;102070;;;;
2022/06/17 01:52:03;;;;;;;0.5;0.5;;;;;;;19.3;100.0;102070;;;;
2022/06/17 01:53:06;;;;;;;0.5;0.5;;;;;;;19.3;100.0;102070;;;;
2022/06/17 01:54:02;;;;;;;0.5;0.5;;;;;;;19.3;100.0;102070;;;;
2022/06/17 01:55:10;;;;;;;0.5;0.5;;;;;;;19.3;100.0;102070;;;;
2022/06/17 01:56:03;;;;;;;0.5;0.5;;;;;;;19.3;100.0;102080;;;;
2022/06/17 01:57:01;;;;;;;0.5;0.5;;;;;;;19.3;100.0;102080;;;;
2022/06/17 01:58:08;;;;;;;0.5;0.5;;;;;;;19.2;100.0;102070;;;;
2022/06/17 01:59:02;;;;;;;0.5;0.5;;;;;;;19.2;100.0;102070;;;;
2022/06/17 02:00:01;;;;;;;0.5;0.5;;;;;;;19.3;100.0;102070;;;;
2022/06/17 02:01:01;;;;;;;0.5;0.5;;;;;;;19.3;100.0;102070;;;;
2022/06/17 02:02:01;;;;;;;0.5;0.5;;;;;;;19.2;100.0;102070;;;;
2022/06/17 02:03:12;;;;;;;0.5;0.5;;;;;;;19.2;100.0;102070;;;;
2022/06/17 02:04:04;;;;;;;0.5;0.5;;;;;;;19.2;100.0;102070;;;;
2022/06/17 02:05:03;;;;;;;0.5;0.5;;;;;;;19.2;100.0;102070;;;;
2022/06/17 02:06:09;;;;;;;0.5;0.5;;;;;;;19.1;100.0;102080;;;;
2022/06/17 02:07:03;;;;;;;0.5;0.5;;;;;;;19.1;100.0;102080;;;;
2022/06/17 02:08:01;;;;;;;0.5;0.5;;;;;;;19.1;100.0;102080;;;;
2022/06/17 02:09:00;;;;;;;0.5;0.5;;;;;;;19.1;100.0;102080;;;;
2022/06/17 02:10:00;;;;;;;0.5;0.5;;;;;;;19.1;100.0;102080;;;;
2022/06/17 02:11:01;;;;;;;0.5;0.5;;;;;;;19.1;100.0;102080;;;;
2022/06/17 02:12:01;;;;;;;0.5;0.5;;;;;;;19.0;100.0;102080;;;;
2022/06/17 02:13:01;;;;;;;0.5;0.5;;;;;;;19.0;100.0;102080;;;;
2022/06/17 02:14:06;;;;;;;0.5;0.5;;;;;;;19.0;100.0;102090;;;;
2022/06/17 02:15:00;;;;;;;0.5;0.5;;;;;;;19.0;100.0;102090;;;;
2022/06/17 02:16:01;;;;;;;0.5;0.5;;;;;;;19.0;100.0;102080;;;;
2022/06/17 02:17:00;;;;;;;0.5;0.5;;;;;;;19.0;100.0;102080;;;;
2022/06/17 02:18:01;;;;;;;0.5;0.5;;;;;;;19.0;100.0;102090;;;;
2022/06/17 02:19:00;;;;;;;0.5;0.5;;;;;;;19.0;100.0;102090;;;;
2022/06/17 02:20:01;;;;;;;0.5;0.5;;;;;;;18.9;100.0;102080;;;;
2022/06/17 02:21:02;;;;;;;0.5;0.5;;;;;;;18.9;100.0;102080;;;;
2022/06/17 02:22:10;;;;;;;0.5;0.5;;;;;;;18.8;100.0;102080;;;;
2022/06/17 02:23:00;;;;;;;0.5;0.5;;;;;;;18.8;100.0;102080;;;;
2022/06/17 02:24:01;;;;;;;0.5;0.5;;;;;;;18.6;100.0;102080;;;;
2022/06/17 02:25:03;;;;;;;0.5;0.5;;;;;;;18.6;100.0;102080;;;;
2022/06/17 02:26:02;;;;;;;0.5;0.5;;;;;;;18.6;100.0;102090;;;;
2022/06/17 02:27:01;;;;;;;0.5;0.5;;;;;;;18.6;100.0;102090;;;;
2022/06/17 02:28:01;;;;;;;0.5;0.5;;;;;;;18.6;100.0;102080;;;;
2022/06/17 02:29:01;;;;;;;0.5;0.5;;;;;;;18.6;100.0;102080;;;;
2022/06/17 02:30:01;;;;;;;1.0;0.6;;;;;;;18.7;100.0;102080;;;;
2022/06/17 02:31:01;;;;;;;1.0;0.6;;;;;;;18.7;100.0;102080;;;;
2022/06/17 02:32:02;;;;;;;1.0;0.6;;;;;;;18.8;100.0;102090;;;;
2022/06/17 02:33:02;;;;;;;1.0;0.6;;;;;;;18.8;100.0;102090;;;;
2022/06/17 02:34:00;;;;;;;1.0;0.6;;;;;;;18.7;100.0;102080;;;;
2022/06/17 02:35:01;;;;;;;1.0;0.6;;;;;;;18.7;100.0;102080;;;;
2022/06/17 02:36:02;;;;;;;1.0;0.6;;;;;;;18.6;100.0;102080;;;;
2022/06/17 02:37:05;;;;;;;1.0;0.6;;;;;;;18.6;100.0;102080;;;;
2022/06/17 02:38:00;;;;;;;1.0;0.6;;;;;;;18.7;100.0;102080;;;;
2022/06/17 02:39:00;;;;;;;1.0;0.6;;;;;;;18.7;100.0;102080;;;;
2022/06/17 02:40:02;;;;;;;1.0;0.6;;;;;;;18.7;100.0;102080;;;;
2022/06/17 02:41:07;;;;;;;1.0;0.6;;;;;;;18.7;100.0;102080;;;;
2022/06/17 02:42:00;;;;;;;1.0;0.6;;;;;;;18.6;100.0;102070;;;;
2022/06/17 02:43:01;;;;;;;1.0;0.6;;;;;;;18.6;100.0;102070;;;;
2022/06/17 02:44:03;;;;;;;1.0;0.6;;;;;;;18.7;100.0;102070;;;;
2022/06/17 02:45:02;;;;;;;1.0;0.6;;;;;;;18.7;100.0;102070;;;;
2022/06/17 02:46:04;;;;;;;1.0;0.6;;;;;;;18.5;100.0;102070;;;;
2022/06/17 02:47:01;;;;;;;1.0;0.6;;;;;;;18.5;100.0;102070;;;;
2022/06/17 02:48:01;;;;;;;1.0;0.6;;;;;;;18.3;100.0;102070;;;;
2022/06/17 02:49:01;;;;;;;0.5;0.5;;;;;;;18.3;100.0;102070;;;;
2022/06/17 02:50:00;;;;;;;0.5;0.5;;;;;;;18.4;100.0;102080;;;;
2022/06/17 02:51:01;;;;;;;0.5;0.5;;;;;;;18.4;100.0;102080;;;;
2022/06/17 02:52:01;;;;;;;0.5;0.5;;;;;;;18.5;100.0;102080;;;;
2022/06/17 02:53:01;;;;;;;0.5;0.5;;;;;;;18.5;100.0;102080;;;;
2022/06/17 02:54:02;;;;;;;0.5;0.5;;;;;;;18.4;100.0;102070;;;;
2022/06/17 02:55:02;;;;;;;0.5;0.5;;;;;;;18.4;100.0;102070;;;;
2022/06/17 02:56:03;;;;;;;0.5;0.5;;;;;;;18.5;100.0;102070;;;;
2022/06/17 02:57:01;;;;;;;0.5;0.5;;;;;;;18.5;100.0;102070;;;;
2022/06/17 02:58:04;;;;;;;0.5;0.5;;;;;;;18.3;100.0;102070;;;;
2022/06/17 02:59:03;;;;;;;0.5;0.5;;;;;;;18.3;100.0;102070;;;;
2022/06/17 03:00:04;;;;;;;0.5;0.5;;;;;;;18.4;100.0;102070;;;;
2022/06/17 03:01:00;;;;;;;0.5;0.5;;;;;;;18.4;100.0;102070;;;;
2022/06/17 03:02:09;;;;;;;0.5;0.5;;;;;;;18.5;100.0;102070;;;;
2022/06/17 03:03:02;;;;;;;0.5;0.5;;;;;;;18.5;100.0;102070;;;;
2022/06/17 03:04:01;;;;;;;0.5;0.5;;;;;;;18.5;100.0;102070;;;;
2022/06/17 03:05:01;;;;;;;0.5;0.5;;;;;;;18.5;100.0;102070;;;;
2022/06/17 03:06:00;;;;;;;0.5;0.5;;;;;;;18.5;100.0;102060;;;;
2022/06/17 03:07:01;;;;;;;0.5;0.5;;;;;;;18.5;100.0;102060;;;;
2022/06/17 03:08:00;;;;;;;0.5;0.5;;;;;;;18.5;100.0;102070;;;;
2022/06/17 03:09:01;;;;;;;3.7;1.2;;;;;;;18.5;100.0;102070;;;;
2022/06/17 03:10:00;;;;;;;3.7;1.2;;;;;;;18.3;100.0;102070;;;;
2022/06/17 03:11:00;;;;;;;3.7;1.2;;;;;;;18.3;100.0;102070;;;;
2022/06/17 03:12:03;;;;;;;3.7;1.2;;;;;;;18.3;100.0;102070;;;;
2022/06/17 03:13:04;;;;;;;3.7;1.2;;;;;;;18.3;100.0;102070;;;;
2022/06/17 03:14:04;;;;;;;3.7;1.2;;;;;;;18.1;100.0;102070;;;;
2022/06/17 03:15:09;;;;;;;3.7;1.2;;;;;;;18.1;100.0;102070;;;;
2022/06/17 03:16:02;;;;;;;3.7;1.2;;;;;;;18.1;100.0;102070;;;;
2022/06/17 03:17:02;;;;;;;3.7;1.2;;;;;;;18.1;100.0;102070;;;;
2022/06/17 03:18:00;;;;;;;3.7;1.2;;;;;;;18.1;100.0;102070;;;;
2022/06/17 03:19:00;;;;;;;3.7;1.2;;;;;;;18.1;100.0;102070;;;;
2022/06/17 03:20:01;;;;;;;3.7;1.2;;;;;;;18.2;100.0;102070;;;;
2022/06/17 03:21:01;;;;;;;3.7;1.2;;;;;;;18.2;100.0;102070;;;;
2022/06/17 03:22:00;;;;;;;3.7;1.2;;;;;;;18.1;100.0;102080;;;;
2022/06/17 03:23:03;;;;;;;3.7;1.2;;;;;;;18.1;100.0;102080;;;;
2022/06/17 03:24:03;;;;;;;3.7;1.2;;;;;;;18.2;100.0;102080;;;;
2022/06/17 03:25:01;;;;;;;3.7;1.2;;;;;;;18.2;100.0;102080;;;;
2022/06/17 03:26:02;;;;;;;3.7;1.2;;;;;;;18.2;100.0;102080;;;;
2022/06/17 03:27:02;;;;;;;3.7;1.2;;;;;;;18.2;100.0;102080;;;;
2022/06/17 03:28:02;;;;;;;3.7;1.2;;;;;;;18.3;100.0;102080;;;;
2022/06/17 03:29:01;;;;;;;0.3;0.3;;;;;;;18.3;100.0;102080;;;;
2022/06/17 03:30:01;;;;;;;0.3;0.3;;;;;;;18.3;100.0;102090;;;;
2022/06/17 03:31:09;;;;;;;0.3;0.3;;;;;;;18.3;100.0;102090;;;;
2022/06/17 03:32:03;;;;;;;0.3;0.3;;;;;;;18.2;100.0;102090;;;;
2022/06/17 03:33:10;;;;;;;0.3;0.3;;;;;;;18.2;100.0;102090;;;;
2022/06/17 03:34:05;;;;;;;0.3;0.3;;;;;;;18.2;100.0;102090;;;;
2022/06/17 03:35:00;;;;;;;0.3;0.3;;;;;;;18.2;100.0;102090;;;;
2022/06/17 03:36:04;;;;;;;0.3;0.3;;;;;;;18.3;100.0;102090;;;;
2022/06/17 03:37:03;;;;;;;0.3;0.3;;;;;;;18.3;100.0;102090;;;;
2022/06/17 03:38:02;;;;;;;0.3;0.3;;;;;;;18.3;100.0;102100;;;;
2022/06/17 03:39:01;;;;;;;0.3;0.3;;;;;;;18.3;100.0;102100;;;;
2022/06/17 03:40:03;;;;;;;0.3;0.3;;;;;;;18.3;100.0;102100;;;;
2022/06/17 03:41:06;;;;;;;0.3;0.3;;;;;;;18.3;100.0;102100;;;;
2022/06/17 03:42:05;;;;;;;0.3;0.3;;;;;;;18.3;100.0;102100;;;;
2022/06/17 03:43:00;;;;;;;0.3;0.3;;;;;;;18.3;100.0;102100;;;;
2022/06/17 03:44:02;;;;;;;0.3;0.3;;;;;;;18.3;100.0;102100;;;;
2022/06/17 03:45:00;;;;;;;0.3;0.3;;;;;;;18.3;100.0;102100;;;;
2022/06/17 03:46:02;;;;;;;0.3;0.3;;;;;;;18.3;100.0;102110;;;;
2022/06/17 03:47:06;;;;;;;0.3;0.3;;;;;;;18.3;100.0;102110;;;;
2022/06/17 03:48:04;;;;;;;0.3;0.3;;;;;;;18.4;100.0;102110;;;;
2022/06/17 03:49:05;;;;;;;0.3;0.3;;;;;;;18.4;100.0;102110;;;;
2022/06/17 03:50:02;;;;;;;0.3;0.3;;;;;;;18.4;100.0;102110;;;;
2022/06/17 03:51:00;;;;;;;0.3;0.3;;;;;;;18.4;100.0;102110;;;;
2022/06/17 03:52:04;;;;;;;0.3;0.3;;;;;;;18.3;100.0;102110;;;;
2022/06/17 03:53:04;;;;;;;0.3;0.3;;;;;;;18.3;100.0;102110;;;;
2022/06/17 03:54:00;;;;;;;0.3;0.3;;;;;;;18.3;100.0;102110;;;;
2022/06/17 03:55:00;;;;;;;0.3;0.3;;;;;;;18.3;100.0;102110;;;;
2022/06/17 03:56:04;;;;;;;0.3;0.3;;;;;;;18.4;100.0;102110;;;;
2022/06/17 03:57:01;;;;;;;0.3;0.3;;;;;;;18.4;100.0;102110;;;;
2022/06/17 03:58:01;;;;;;;0.3;0.3;;;;;;;18.5;100.0;102110;;;;
2022/06/17 03:59:10;;;;;;;0.3;0.3;;;;;;;18.5;100.0;102110;;;;
2022/06/17 04:00:01;;;;;;;0.3;0.3;;;;;;;18.5;100.0;102110;;;;
2022/06/17 04:01:01;;;;;;;0.3;0.3;;;;;;;18.5;100.0;102110;;;;
2022/06/17 04:02:05;;;;;;;0.3;0.3;;;;;;;18.6;100.0;102110;;;;
2022/06/17 04:03:01;;;;;;;0.3;0.3;;;;;;;18.6;100.0;102110;;;;
2022/06/17 04:04:01;;;;;;;0.3;0.3;;;;;;;18.6;100.0;102110;;;;
2022/06/17 04:05:01;;;;;;;0.3;0.3;;;;;;;18.6;100.0;102110;;;;
2022/06/17 04:06:10;;;;;;;0.3;0.3;;;;;;;18.6;100.0;102110;;;;
2022/06/17 04:07:00;;;;;;;0.3;0.3;;;;;;;18.6;100.0;102110;;;;
2022/06/17 04:08:00;;;;;;;0.3;0.3;;;;;;;18.6;100.0;102110;;;;
2022/06/17 04:09:01;;;;;;;2.6;0.5;;;;;;;18.6;100.0;102110;;;;
2022/06/17 04:10:00;;;;;;;2.6;0.5;;;;;;;18.6;100.0;102110;;;;
2022/06/17 04:11:00;;;;;;;2.6;0.5;;;;;;;18.6;100.0;102110;;;;
2022/06/17 04:12:03;;;;;;;2.6;0.5;;;;;;;18.6;100.0;102100;;;;
2022/06/17 04:13:00;;;;;;;2.6;0.5;;;;;;;18.6;100.0;102100;;;;
2022/06/17 04:14:02;;;;;;;2.6;0.5;;;;;;;18.6;100.0;102110;;;;
2022/06/17 04:15:07;;;;;;;2.6;0.5;;;;;;;18.6;100.0;102110;;;;
2022/06/17 04:16:10;;;;;;;2.6;0.5;;;;;;;18.7;100.0;102110;;;;
2022/06/17 04:17:10;;;;;;;2.6;0.5;;;;;;;18.7;100.0;102110;;;;
2022/06/17 04:18:00;;;;;;;2.6;0.5;;;;;;;18.7;100.0;102110;;;;
2022/06/17 04:19:02;;;;;;;2.6;0.5;;;;;;;18.7;100.0;102110;;;;
2022/06/17 04:20:06;;;;;;;2.6;0.5;;;;;;;18.7;100.0;102110;;;;
2022/06/17 04:21:01;;;;;;;2.6;0.5;;;;;;;18.7;100.0;102110;;;;
2022/06/17 04:22:05;;;;;;;2.6;0.5;;;;;;;18.8;100.0;102110;;;;
2022/06/17 04:23:03;;;;;;;2.6;0.5;;;;;;;18.8;100.0;102110;;;;
2022/06/17 04:24:00;;;;;;;2.6;0.5;;;;;;;18.8;100.0;102110;;;;
2022/06/17 04:25:01;;;;;;;2.6;0.5;;;;;;;18.8;100.0;102110;;;;
2022/06/17 04:26:02;;;;;;;2.6;0.5;;;;;;;18.8;100.0;102100;;;;
2022/06/17 04:27:03;;;;;;;2.6;0.5;;;;;;;18.8;100.0;102100;;;;
2022/06/17 04:28:06;;;;;;;2.6;0.5;;;;;;;18.8;100.0;102090;;;;
2022/06/17 04:29:09;;;;;;;1.1;1.0;;;;;;;18.8;100.0;102090;;;;
2022/06/17 04:30:00;;;;;;;1.1;1.0;;;;;;;18.7;100.0;102090;;;;
2022/06/17 04:31:01;;;;;;;1.1;1.0;;;;;;;18.7;100.0;102090;;;;
2022/06/17 04:32:05;;;;;;;1.1;1.0;;;;;;;18.8;100.0;102090;;;;
2022/06/17 04:33:02;;;;;;;1.1;1.0;;;;;;;18.8;100.0;102090;;;;
2022/06/17 04:34:05;;;;;;;1.1;1.0;;;;;;;18.8;100.0;102090;;;;
2022/06/17 04:35:00;;;;;;;1.1;1.0;;;;;;;18.8;100.0;102090;;;;
2022/06/17 04:36:03;;;;;;;1.1;1.0;;;;;;;18.9;100.0;102090;;;;
2022/06/17 04:37:03;;;;;;;1.1;1.0;;;;;;;18.9;100.0;102090;;;;
2022/06/17 04:38:00;;;;;;;1.1;1.0;;;;;;;18.9;100.0;102090;;;;
2022/06/17 04:39:10;;;;;;;1.1;1.0;;;;;;;18.9;100.0;102090;;;;
2022/06/17 04:40:02;;;;;;;1.1;1.0;;;;;;;18.9;100.0;102090;;;;
2022/06/17 04:41:02;;;;;;;1.1;1.0;;;;;;;18.9;100.0;102090;;;;
2022/06/17 04:42:02;;;;;;;1.1;1.0;;;;;;;18.9;100.0;102090;;;;
2022/06/17 04:43:00;;;;;;;1.1;1.0;;;;;;;18.9;100.0;102090;;;;
2022/06/17 04:44:02;;;;;;;1.1;1.0;;;;;;;18.9;100.0;102080;;;;
2022/06/17 04:45:00;;;;;;;1.1;1.0;;;;;;;18.9;100.0;102080;;;;
2022/06/17 04:46:05;;;;;;;1.1;1.0;;;;;;;18.9;100.0;102080;;;;
2022/06/17 04:47:04;;;;;;;1.1;1.0;;;;;;;18.9;100.0;102080;;;;
2022/06/17 04:48:00;;;;;;;1.1;1.0;;;;;;;18.8;100.0;102080;;;;
2022/06/17 04:49:00;;;;;;;0.6;0.6;;;;;;;18.8;100.0;102080;;;;
2022/06/17 04:50:02;;;;;;;0.6;0.6;;;;;;;18.9;100.0;102080;;;;
2022/06/17 04:51:00;;;;;;;0.6;0.6;;;;;;;18.9;100.0;102080;;;;
2022/06/17 04:52:02;;;;;;;0.6;0.6;;;;;;;18.9;100.0;102080;;;;
2022/06/17 04:53:00;;;;;;;0.6;0.6;;;;;;;18.9;100.0;102080;;;;
2022/06/17 04:54:02;;;;;;;0.6;0.6;;;;;;;18.8;100.0;102080;;;;
2022/06/17 04:55:01;;;;;;;0.6;0.6;;;;;;;18.8;100.0;102080;;;;
2022/06/17 04:56:10;;;;;;;0.6;0.6;;;;;;;18.9;100.0;102080;;;;
2022/06/17 04:57:02;;;;;;;0.6;0.6;;;;;;;18.9;100.0;102080;;;;
2022/06/17 04:58:00;;;;;;;0.6;0.6;;;;;;;18.9;100.0;102090;;;;
2022/06/17 04:59:00;;;;;;;0.6;0.6;;;;;;;18.9;100.0;102090;;;;
2022/06/17 05:00:00;;;;;;;0.6;0.6;;;;;;;19.0;100.0;102080;;;;
2022/06/17 05:01:00;;;;;;;0.6;0.6;;;;;;;19.0;100.0;102080;;;;
2022/06/17 05:02:01;;;;;;;0.6;0.6;;;;;;;19.0;100.0;102080;;;;
2022/06/17 05:03:00;;;;;;;0.6;0.6;;;;;;;19.0;100.0;102080;;;;
2022/06/17 05:04:01;;;;;;;0.6;0.6;;;;;;;19.0;100.0;102080;;;;
2022/06/17 05:05:01;;;;;;;0.6;0.6;;;;;;;19.0;100.0;102080;;;;
2022/06/17 05:06:00;;;;;;;0.6;0.6;;;;;;;19.0;100.0;102070;;;;
2022/06/17 05:07:00;;;;;;;0.6;0.6;;;;;;;19.0;100.0;102070;;;;
2022/06/17 05:08:02;;;;;;;0.6;0.6;;;;;;;19.0;100.0;102080;;;;
2022/06/17 05:09:04;;;;;;;0.5;0.5;;;;;;;19.0;100.0;102080;;;;
2022/06/17 05:10:05;;;;;;;0.5;0.5;;;;;;;19.1;100.0;102080;;;;
2022/06/17 05:11:10;;;;;;;0.5;0.5;;;;;;;19.1;100.0;102080;;;;
2022/06/17 05:12:04;;;;;;;0.5;0.5;;;;;;;19.1;100.0;102070;;;;
2022/06/17 05:13:00;;;;;;;0.5;0.5;;;;;;;19.1;100.0;102070;;;;
2022/06/17 05:14:10;;;;;;;0.5;0.5;;;;;;;19.1;100.0;102070;;;;
2022/06/17 05:15:03;;;;;;;0.5;0.5;;;;;;;19.1;100.0;102070;;;;
2022/06/17 05:16:00;;;;;;;0.5;0.5;;;;;;;19.1;100.0;102070;;;;
2022/06/17 05:17:00;;;;;;;0.5;0.5;;;;;;;19.1;100.0;102070;;;;
2022/06/17 05:18:00;;;;;;;0.5;0.5;;;;;;;19.2;100.0;102080;;;;
2022/06/17 05:19:00;;;;;;;0.5;0.5;;;;;;;19.2;100.0;102080;;;;
2022/06/17 05:20:00;;;;;;;0.5;0.5;;;;;;;19.2;100.0;102080;;;;
2022/06/17 05:21:00;;;;;;;0.5;0.5;;;;;;;19.2;100.0;102080;;;;
2022/06/17 05:22:01;;;;;;;0.5;0.5;;;;;;;19.3;100.0;102070;;;;
2022/06/17 05:23:02;;;;;;;0.5;0.5;;;;;;;19.3;100.0;102070;;;;
2022/06/17 05:24:00;;;;;;;0.5;0.5;;;;;;;19.3;100.0;102070;;;;
2022/06/17 05:25:02;;;;;;;0.5;0.5;;;;;;;19.3;100.0;102070;;;;
2022/06/17 05:26:00;;;;;;;0.5;0.5;;;;;;;19.4;100.0;102070;;;;
2022/06/17 05:27:00;;;;;;;0.5;0.5;;;;;;;19.4;100.0;102070;;;;
2022/06/17 05:28:00;;;;;;;0.5;0.5;;;;;;;19.5;100.0;102060;;;;
2022/06/17 05:29:00;;;;;;;0.9;0.9;;;;;;;19.5;100.0;102060;;;;
2022/06/17 05:30:00;;;;;;;0.9;0.9;;;;;;;19.7;100.0;102060;;;;
2022/06/17 05:31:00;;;;;;;0.9;0.9;;;;;;;19.7;100.0;102060;;;;
2022/06/17 05:32:00;;;;;;;0.9;0.9;;;;;;;19.7;100.0;102060;;;;
2022/06/17 05:33:00;;;;;;;0.9;0.9;;;;;;;19.7;100.0;102060;;;;
2022/06/17 05:34:00;;;;;;;0.9;0.9;;;;;;;19.7;100.0;102070;;;;
2022/06/17 05:35:00;;;;;;;0.9;0.9;;;;;;;19.7;100.0;102070;;;;
2022/06/17 05:36:00;;;;;;;0.9;0.9;;;;;;;19.8;100.0;102060;;;;
2022/06/17 05:37:03;;;;;;;0.9;0.9;;;;;;;19.8;100.0;102060;;;;
2022/06/17 05:38:00;;;;;;;0.9;0.9;;;;;;;20.0;100.0;102070;;;;
2022/06/17 05:39:00;;;;;;;0.9;0.9;;;;;;;20.0;100.0;102070;;;;
2022/06/17 05:40:00;;;;;;;0.9;0.9;;;;;;;20.0;100.0;102070;;;;
2022/06/17 05:41:00;;;;;;;0.9;0.9;;;;;;;20.0;100.0;102070;;;;
2022/06/17 05:42:00;;;;;;;0.9;0.9;;;;;;;20.2;100.0;102070;;;;
2022/06/17 05:43:00;;;;;;;0.9;0.9;;;;;;;20.2;100.0;102070;;;;
2022/06/17 05:44:00;;;;;;;0.9;0.9;;;;;;;20.3;100.0;102070;;;;
2022/06/17 05:45:00;;;;;;;0.9;0.9;;;;;;;20.3;100.0;102070;;;;
2022/06/17 05:46:01;;;;;;;0.9;0.9;;;;;;;20.3;100.0;102070;;;;
2022/06/17 05:47:00;;;;;;;0.9;0.9;;;;;;;20.3;100.0;102070;;;;
2022/06/17 05:48:00;;;;;;;0.9;0.9;;;;;;;20.3;100.0;102070;;;;
2022/06/17 05:49:00;;;;;;;0.5;0.5;;;;;;;20.3;100.0;102070;;;;
2022/06/17 05:50:03;;;;;;;0.5;0.5;;;;;;;20.3;100.0;102080;;;;
2022/06/17 05:51:00;;;;;;;0.5;0.5;;;;;;;20.3;100.0;102080;;;;
2022/06/17 05:52:00;;;;;;;0.5;0.5;;;;;;;20.5;100.0;102080;;;;
2022/06/17 05:53:01;;;;;;;0.5;0.5;;;;;;;20.5;100.0;102080;;;;
2022/06/17 05:54:00;;;;;;;0.5;0.5;;;;;;;20.6;100.0;102080;;;;
2022/06/17 05:55:01;;;;;;;0.5;0.5;;;;;;;20.6;100.0;102080;;;;
2022/06/17 05:56:00;;;;;;;0.5;0.5;;;;;;;20.5;100.0;102080;;;;
2022/06/17 05:57:04;;;;;;;0.5;0.5;;;;;;;20.5;100.0;102080;;;;
2022/06/17 05:58:00;;;;;;;0.5;0.5;;;;;;;20.7;100.0;102080;;;;
2022/06/17 05:59:00;;;;;;;0.5;0.5;;;;;;;20.7;100.0;102080;;;;
2022/06/17 06:00:07;;;;;;;0.5;0.5;;;;;;;20.7;100.0;102070;;;;
2022/06/17 06:01:00;;;;;;;0.5;0.5;;;;;;;20.7;100.0;102070;;;;
2022/06/17 06:02:00;;;;;;;0.5;0.5;;;;;;;20.8;100.0;102060;;;;
2022/06/17 06:03:03;;;;;;;0.5;0.5;;;;;;;20.8;100.0;102060;;;;
2022/06/17 06:04:00;;;;;;;0.5;0.5;;;;;;;20.7;100.0;102060;;;;
2022/06/17 06:05:00;;;;;;;0.5;0.5;;;;;;;20.7;100.0;102060;;;;
2022/06/17 06:06:01;;;;;;;0.5;0.5;;;;;;;20.6;100.0;102050;;;;
2022/06/17 06:07:00;;;;;;;0.5;0.5;;;;;;;20.6;100.0;102050;;;;
2022/06/17 06:08:06;;;;;;;0.5;0.5;;;;;;;20.8;100.0;102050;;;;
2022/06/17 06:09:00;;;;;;;0.3;0.3;;;;;;;20.8;100.0;102050;;;;
2022/06/17 06:10:01;;;;;;;0.3;0.3;;;;;;;20.6;100.0;102040;;;;
2022/06/17 06:11:02;;;;;;;0.3;0.3;;;;;;;20.6;100.0;102040;;;;
2022/06/17 06:12:00;;;;;;;0.3;0.3;;;;;;;20.8;100.0;102040;;;;
2022/06/17 06:13:03;;;;;;;0.3;0.3;;;;;;;20.8;100.0;102040;;;;
2022/06/17 06:14:00;;;;;;;0.3;0.3;;;;;;;20.7;100.0;102040;;;;
2022/06/17 06:15:00;;;;;;;0.3;0.3;;;;;;;20.7;100.0;102040;;;;
2022/06/17 06:16:01;;;;;;;0.3;0.3;;;;;;;20.6;100.0;102040;;;;
2022/06/17 06:17:00;;;;;;;0.3;0.3;;;;;;;20.6;100.0;102040;;;;
2022/06/17 06:18:00;;;;;;;0.3;0.3;;;;;;;20.8;100.0;102050;;;;
2022/06/17 06:19:00;;;;;;;0.3;0.3;;;;;;;20.8;100.0;102050;;;;
2022/06/17 06:20:00;;;;;;;0.3;0.3;;;;;;;20.8;100.0;102050;;;;
2022/06/17 06:21:04;;;;;;;0.3;0.3;;;;;;;20.8;100.0;102050;;;;
2022/06/17 06:22:00;;;;;;;0.3;0.3;;;;;;;21.0;100.0;102050;;;;
2022/06/17 06:23:00;;;;;;;0.3;0.3;;;;;;;21.0;100.0;102050;;;;
2022/06/17 06:24:00;;;;;;;0.3;0.3;;;;;;;21.0;100.0;102060;;;;